sensor_id;sensor_type;location;lat;lon;timestamp;pressure;altitude;pressure_sealevel;temperature;humidity
6204;BME280;3135;42.602;23.468;2024-02-28T00:01:36;90227.59;;;-145.88;100.00
6204;BME280;3135;42.602;23.468;2024-02-28T00:04:02;90272.66;;;-145.88;100.00
6204;BME280;3135;42.602;23.468;2024-02-28T00:06:27;90262.41;;;-145.88;100.00
6204;BME280;3135;42.602;23.468;2024-02-28T00:08:53;90043.22;;;-145.88;100.00
6204;BME280;3135;42.602;23.468;2024-02-28T00:11:20;90342.31;;;-145.88;100.00
6204;BME280;3135;42.602;23.468;2024-02-28T00:13:46;90254.22;;;-145.88;100.00
6204;BME280;3135;42.602;23.468;2024-02-28T00:16:11;90280.84;;;-145.88;100.00
6204;BME280;3135;42.602;23.468;2024-02-28T00:18:37;91295.09;;;-145.88;100.00
6204;BME280;3135;42.602;23.468;2024-02-28T00:21:02;90379.19;;;-145.88;100.00
6204;BME280;3135;42.602;23.468;2024-02-28T00:23:29;90145.66;;;-145.88;100.00
6204;BME280;3135;42.602;23.468;2024-02-28T00:25:55;91291.00;;;-145.88;100.00
6204;BME280;3135;42.602;23.468;2024-02-28T00:28:20;89920.31;;;-145.88;100.00
6204;BME280;3135;42.602;23.468;2024-02-28T00:30:46;90227.59;;;-145.88;100.00
6204;BME280;3135;42.602;23.468;2024-02-28T00:33:11;91069.69;;;-145.88;100.00
6204;BME280;3135;42.602;23.468;2024-02-28T00:35:37;90260.38;;;-145.88;100.00
6204;BME280;3135;42.602;23.468;2024-02-28T00:38:02;90213.25;;;-145.88;100.00
6204;BME280;3135;42.602;23.468;2024-02-28T00:40:28;90735.69;;;-145.88;100.00
6204;BME280;3135;42.602;23.468;2024-02-28T00:42:54;90200.97;;;-145.88;100.00
6204;BME280;3135;42.602;23.468;2024-02-28T00:45:19;90686.53;;;-145.88;100.00
6204;BME280;3135;42.602;23.468;2024-02-28T00:47:45;90262.41;;;-145.88;100.00
6204;BME280;3135;42.602;23.468;2024-02-28T00:50:10;90321.84;;;-145.88;100.00
6204;BME280;3135;42.602;23.468;2024-02-28T00:52:37;90366.91;;;-145.88;100.00
6204;BME280;3135;42.602;23.468;2024-02-28T00:55:02;90209.16;;;-145.88;100.00
6204;BME280;3135;42.602;23.468;2024-02-28T00:57:30;90301.34;;;-145.88;100.00
6204;BME280;3135;42.602;23.468;2024-02-28T00:59:56;90227.59;;;-145.88;100.00
6204;BME280;3135;42.602;23.468;2024-02-28T01:02:21;90305.44;;;-145.88;100.00
6204;BME280;3135;42.602;23.468;2024-02-28T01:04:47;90209.16;;;-145.88;100.00
6204;BME280;3135;42.602;23.468;2024-02-28T01:07:12;90411.97;;;-145.88;100.00
6204;BME280;3135;42.602;23.468;2024-02-28T01:09:38;90338.22;;;-145.88;100.00
6204;BME280;3135;42.602;23.468;2024-02-28T01:12:03;90174.31;;;-145.88;100.00
6204;BME280;3135;42.602;23.468;2024-02-28T01:14:29;90133.34;;;-145.88;100.00
6204;BME280;3135;42.602;23.468;2024-02-28T01:16:54;90303.41;;;-145.88;100.00
6204;BME280;3135;42.602;23.468;2024-02-28T01:19:20;90211.19;;;-145.88;100.00
6204;BME280;3135;42.602;23.468;2024-02-28T01:21:45;90219.41;;;-145.88;100.00
6204;BME280;3135;42.602;23.468;2024-02-28T01:24:10;90289.06;;;-145.88;100.00
6204;BME280;3135;42.602;23.468;2024-02-28T01:26:36;90303.41;;;-145.88;100.00
6204;BME280;3135;42.602;23.468;2024-02-28T01:29:01;90313.63;;;-145.88;100.00
6204;BME280;3135;42.602;23.468;2024-02-28T01:31:28;90272.66;;;-145.88;100.00
6204;BME280;3135;42.602;23.468;2024-02-28T01:33:53;90108.78;;;-145.88;100.00
6204;BME280;3135;42.602;23.468;2024-02-28T01:36:21;90315.69;;;-145.88;100.00
6204;BME280;3135;42.602;23.468;2024-02-28T01:38:46;90227.59;;;-145.88;100.00
6204;BME280;3135;42.602;23.468;2024-02-28T01:41:11;90276.75;;;-145.88;100.00
6204;BME280;3135;42.602;23.468;2024-02-28T01:43:37;90180.47;;;-145.88;100.00
6204;BME280;3135;42.602;23.468;2024-02-28T01:46:06;90797.16;;;-145.88;100.00
6204;BME280;3135;42.602;23.468;2024-02-28T01:48:38;90188.66;;;-145.88;100.00
6204;BME280;3135;42.602;23.468;2024-02-28T01:51:04;90270.63;;;-145.88;100.00
6204;BME280;3135;42.602;23.468;2024-02-28T01:53:30;90186.63;;;-145.88;100.00
6204;BME280;3135;42.602;23.468;2024-02-28T01:55:56;90057.56;;;-145.88;100.00
6204;BME280;3135;42.602;23.468;2024-02-28T01:58:23;90393.53;;;-145.88;100.00
6204;BME280;3135;42.602;23.468;2024-02-28T02:00:49;90305.44;;;-145.88;100.00
6204;BME280;3135;42.602;23.468;2024-02-28T02:03:14;90473.44;;;-145.88;100.00
6204;BME280;3135;42.602;23.468;2024-02-28T02:05:41;90164.09;;;-145.88;100.00
6204;BME280;3135;42.602;23.468;2024-02-28T02:08:07;90145.66;;;-145.88;100.00
6204;BME280;3135;42.602;23.468;2024-02-28T02:10:32;90231.69;;;-145.88;100.00
6204;BME280;3135;42.602;23.468;2024-02-28T02:13:04;90608.66;;;-145.88;100.00
6204;BME280;3135;42.602;23.468;2024-02-28T02:15:30;90711.09;;;-145.88;100.00
6204;BME280;3135;42.602;23.468;2024-02-28T02:17:56;90241.94;;;-145.88;100.00
6204;BME280;3135;42.602;23.468;2024-02-28T02:20:22;90205.06;;;-145.88;100.00
6204;BME280;3135;42.602;23.468;2024-02-28T02:22:48;90178.44;;;-145.88;100.00
6204;BME280;3135;42.602;23.468;2024-02-28T02:25:13;90231.69;;;-145.88;100.00
6204;BME280;3135;42.602;23.468;2024-02-28T02:27:39;90895.50;;;-145.88;100.00
6204;BME280;3135;42.602;23.468;2024-02-28T02:30:05;90225.53;;;-145.88;100.00
6204;BME280;3135;42.602;23.468;2024-02-28T02:32:30;90239.88;;;-145.88;100.00
6204;BME280;3135;42.602;23.468;2024-02-28T02:34:56;90127.22;;;-145.88;100.00
6204;BME280;3135;42.602;23.468;2024-02-28T02:37:21;90354.63;;;-145.88;100.00
6204;BME280;3135;42.602;23.468;2024-02-28T02:39:47;91323.78;;;-145.88;100.00
6204;BME280;3135;42.602;23.468;2024-02-28T02:42:12;90407.88;;;-145.88;100.00
6204;BME280;3135;42.602;23.468;2024-02-28T02:44:41;90168.19;;;-145.88;100.00
6204;BME280;3135;42.602;23.468;2024-02-28T02:47:07;90262.41;;;-145.88;100.00
6204;BME280;3135;42.602;23.468;2024-02-28T02:49:32;90301.34;;;-145.88;100.00
6204;BME280;3135;42.602;23.468;2024-02-28T02:51:58;90287.00;;;-145.88;100.00
6204;BME280;3135;42.602;23.468;2024-02-28T02:54:23;90264.47;;;-145.88;100.00
6204;BME280;3135;42.602;23.468;2024-02-28T02:56:49;90325.94;;;-145.88;100.00
6204;BME280;3135;42.602;23.468;2024-02-28T02:59:14;90264.47;;;-145.88;100.00
6204;BME280;3135;42.602;23.468;2024-02-28T03:01:40;90157.94;;;-145.88;100.00
6204;BME280;3135;42.602;23.468;2024-02-28T03:04:05;90440.66;;;-145.88;100.00
6204;BME280;3135;42.602;23.468;2024-02-28T03:06:31;90379.19;;;-145.88;100.00
6204;BME280;3135;42.602;23.468;2024-02-28T03:08:57;90346.41;;;-145.88;100.00
6204;BME280;3135;42.602;23.468;2024-02-28T03:11:23;90235.78;;;-145.88;100.00
6204;BME280;3135;42.602;23.468;2024-02-28T03:13:48;90295.19;;;-145.88;100.00
6204;BME280;3135;42.602;23.468;2024-02-28T03:16:14;90243.97;;;-145.88;100.00
6204;BME280;3135;42.602;23.468;2024-02-28T03:18:39;90266.50;;;-145.88;100.00
6204;BME280;3135;42.602;23.468;2024-02-28T03:21:05;91149.59;;;-145.88;100.00
6204;BME280;3135;42.602;23.468;2024-02-28T03:23:31;90223.50;;;-145.88;100.00
6204;BME280;3135;42.602;23.468;2024-02-28T03:25:57;90250.13;;;-145.88;100.00
6204;BME280;3135;42.602;23.468;2024-02-28T03:28:22;91407.81;;;-145.88;100.00
6204;BME280;3135;42.602;23.468;2024-02-28T03:30:48;90340.28;;;-145.88;100.00
6204;BME280;3135;42.602;23.468;2024-02-28T03:33:13;90266.50;;;-145.88;100.00
6204;BME280;3135;42.602;23.468;2024-02-28T03:35:38;91239.75;;;-145.88;100.00
6204;BME280;3135;42.602;23.468;2024-02-28T03:38:04;90268.56;;;-145.88;100.00
6204;BME280;3135;42.602;23.468;2024-02-28T03:40:29;90280.84;;;-145.88;100.00
6204;BME280;3135;42.602;23.468;2024-02-28T03:42:55;90371.00;;;-145.88;100.00
6204;BME280;3135;42.602;23.468;2024-02-28T03:45:20;90276.75;;;-145.88;100.00
6204;BME280;3135;42.602;23.468;2024-02-28T03:47:46;90358.72;;;-145.88;100.00
6204;BME280;3135;42.602;23.468;2024-02-28T03:50:11;90444.75;;;-145.88;100.00
6204;BME280;3135;42.602;23.468;2024-02-28T03:52:36;90291.09;;;-145.88;100.00
6204;BME280;3135;42.602;23.468;2024-02-28T03:55:02;90284.94;;;-145.88;100.00
6204;BME280;3135;42.602;23.468;2024-02-28T03:57:28;90375.09;;;-145.88;100.00
6204;BME280;3135;42.602;23.468;2024-02-28T03:59:53;90223.50;;;-145.88;100.00
6204;BME280;3135;42.602;23.468;2024-02-28T04:02:19;90323.88;;;-145.88;100.00
6204;BME280;3135;42.602;23.468;2024-02-28T04:04:44;90055.50;;;-145.88;100.00
6204;BME280;3135;42.602;23.468;2024-02-28T04:07:10;90293.16;;;-145.88;100.00
6204;BME280;3135;42.602;23.468;2024-02-28T04:09:35;90377.16;;;-145.88;100.00
6204;BME280;3135;42.602;23.468;2024-02-28T04:12:01;90207.09;;;-145.88;100.00
6204;BME280;3135;42.602;23.468;2024-02-28T04:14:26;90397.63;;;-145.88;100.00
6204;BME280;3135;42.602;23.468;2024-02-28T04:16:52;90229.63;;;-145.88;100.00
6204;BME280;3135;42.602;23.468;2024-02-28T04:19:18;90264.47;;;-145.88;100.00
6204;BME280;3135;42.602;23.468;2024-02-28T04:21:43;90373.06;;;-145.88;100.00
6204;BME280;3135;42.602;23.468;2024-02-28T04:24:09;90256.28;;;-145.88;100.00
6204;BME280;3135;42.602;23.468;2024-02-28T04:26:35;90354.63;;;-145.88;100.00
6204;BME280;3135;42.602;23.468;2024-02-28T04:29:01;90375.09;;;-145.88;100.00
6204;BME280;3135;42.602;23.468;2024-02-28T04:31:28;90309.53;;;-145.88;100.00
6204;BME280;3135;42.602;23.468;2024-02-28T04:33:54;90293.16;;;-145.88;100.00
6204;BME280;3135;42.602;23.468;2024-02-28T04:36:19;90395.59;;;-145.88;100.00
6204;BME280;3135;42.602;23.468;2024-02-28T04:38:45;90301.34;;;-145.88;100.00
6204;BME280;3135;42.602;23.468;2024-02-28T04:41:10;90301.34;;;-145.88;100.00
6204;BME280;3135;42.602;23.468;2024-02-28T04:43:35;90303.41;;;-145.88;100.00
6204;BME280;3135;42.602;23.468;2024-02-28T04:46:02;90297.25;;;-145.88;100.00
6204;BME280;3135;42.602;23.468;2024-02-28T04:48:28;90385.34;;;-145.88;100.00
6204;BME280;3135;42.602;23.468;2024-02-28T04:50:53;90246.03;;;-145.88;100.00
6204;BME280;3135;42.602;23.468;2024-02-28T04:53:19;90030.94;;;-145.88;100.00
6204;BME280;3135;42.602;23.468;2024-02-28T04:55:45;90434.50;;;-145.88;100.00
6204;BME280;3135;42.602;23.468;2024-02-28T04:58:11;90272.66;;;-145.88;100.00
6204;BME280;3135;42.602;23.468;2024-02-28T05:00:36;90039.13;;;-145.88;100.00
6204;BME280;3135;42.602;23.468;2024-02-28T05:03:02;90438.59;;;-145.88;100.00
6204;BME280;3135;42.602;23.468;2024-02-28T05:05:27;90459.09;;;-145.88;100.00
6204;BME280;3135;42.602;23.468;2024-02-28T05:07:53;90567.69;;;-145.88;100.00
6204;BME280;3135;42.602;23.468;2024-02-28T05:10:18;90373.06;;;-145.88;100.00
6204;BME280;3135;42.602;23.468;2024-02-28T05:12:43;90391.50;;;-145.88;100.00
6204;BME280;3135;42.602;23.468;2024-02-28T05:15:09;90342.31;;;-145.88;100.00
6204;BME280;3135;42.602;23.468;2024-02-28T05:17:35;90846.34;;;-145.88;100.00
6204;BME280;3135;42.602;23.468;2024-02-28T05:20:00;90381.25;;;-145.88;100.00
6204;BME280;3135;42.602;23.468;2024-02-28T05:22:26;90356.66;;;-145.88;100.00
6204;BME280;3135;42.602;23.468;2024-02-28T05:24:51;90348.47;;;-145.88;100.00
6204;BME280;3135;42.602;23.468;2024-02-28T05:27:17;90366.91;;;-145.88;100.00
6204;BME280;3135;42.602;23.468;2024-02-28T05:29:42;90495.97;;;-145.88;100.00
6204;BME280;3135;42.602;23.468;2024-02-28T05:32:09;90379.19;;;-145.88;100.00
6204;BME280;3135;42.602;23.468;2024-02-28T05:34:35;90895.50;;;-145.88;100.00
6204;BME280;3135;42.602;23.468;2024-02-28T05:37:00;90409.94;;;-145.88;100.00
6204;BME280;3135;42.602;23.468;2024-02-28T05:39:26;90426.31;;;-145.88;100.00
6204;BME280;3135;42.602;23.468;2024-02-28T05:41:54;90270.63;;;-145.88;100.00
6204;BME280;3135;42.602;23.468;2024-02-28T05:44:19;90327.97;;;-145.88;100.00
6204;BME280;3135;42.602;23.468;2024-02-28T05:46:45;90424.25;;;-145.88;100.00
6204;BME280;3135;42.602;23.468;2024-02-28T05:49:10;90342.31;;;-145.88;100.00
6204;BME280;3135;42.602;23.468;2024-02-28T05:51:36;90407.88;;;-145.88;100.00
6204;BME280;3135;42.602;23.468;2024-02-28T05:54:01;90368.94;;;-145.88;100.00
6204;BME280;3135;42.602;23.468;2024-02-28T05:56:27;90371.00;;;-145.88;100.00
6204;BME280;3135;42.602;23.468;2024-02-28T05:58:52;90358.72;;;-145.88;100.00
6204;BME280;3135;42.602;23.468;2024-02-28T06:01:18;90461.16;;;-145.88;100.00
6204;BME280;3135;42.602;23.468;2024-02-28T06:03:50;90317.72;;;-145.88;100.00
6204;BME280;3135;42.602;23.468;2024-02-28T06:06:18;90399.69;;;-145.88;100.00
6204;BME280;3135;42.602;23.468;2024-02-28T06:08:44;90358.72;;;-145.88;100.00
6204;BME280;3135;42.602;23.468;2024-02-28T06:11:09;90399.69;;;-145.88;100.00
6204;BME280;3135;42.602;23.468;2024-02-28T06:13:36;90375.09;;;-145.88;100.00
6204;BME280;3135;42.602;23.468;2024-02-28T06:16:02;90366.91;;;-145.88;100.00
6204;BME280;3135;42.602;23.468;2024-02-28T06:18:28;90362.81;;;-145.88;100.00
6204;BME280;3135;42.602;23.468;2024-02-28T06:20:58;91120.91;;;-145.88;100.00
6204;BME280;3135;42.602;23.468;2024-02-28T06:23:24;90309.53;;;-145.88;100.00
6204;BME280;3135;42.602;23.468;2024-02-28T06:25:50;90332.06;;;-145.88;100.00
6204;BME280;3135;42.602;23.468;2024-02-28T06:28:15;90059.63;;;-145.88;100.00
6204;BME280;3135;42.602;23.468;2024-02-28T06:30:42;90362.81;;;-145.88;100.00
6204;BME280;3135;42.602;23.468;2024-02-28T06:33:08;90344.38;;;-145.88;100.00
6204;BME280;3135;42.602;23.468;2024-02-28T06:35:34;91129.09;;;-145.88;100.00
6204;BME280;3135;42.602;23.468;2024-02-28T06:37:59;90227.59;;;-145.88;100.00
6204;BME280;3135;42.602;23.468;2024-02-28T06:40:25;90321.84;;;-145.88;100.00
6204;BME280;3135;42.602;23.468;2024-02-28T06:42:50;90924.19;;;-145.88;100.00
6204;BME280;3135;42.602;23.468;2024-02-28T06:45:15;90282.91;;;-145.88;100.00
6204;BME280;3135;42.602;23.468;2024-02-28T06:47:41;90260.38;;;-145.88;100.00
6204;BME280;3135;42.602;23.468;2024-02-28T06:50:07;90362.81;;;-145.88;100.00
6204;BME280;3135;42.602;23.468;2024-02-28T06:52:33;90364.84;;;-145.88;100.00
6204;BME280;3135;42.602;23.468;2024-02-28T06:55:00;90340.28;;;-145.88;100.00
6204;BME280;3135;42.602;23.468;2024-02-28T06:57:28;90293.16;;;-145.88;100.00
6204;BME280;3135;42.602;23.468;2024-02-28T06:59:54;90231.69;;;-145.88;100.00
6204;BME280;3135;42.602;23.468;2024-02-28T07:02:19;90174.31;;;-145.88;100.00
6204;BME280;3135;42.602;23.468;2024-02-28T07:04:44;90256.28;;;-145.88;100.00
6204;BME280;3135;42.602;23.468;2024-02-28T07:07:10;91088.13;;;-145.88;100.00
6204;BME280;3135;42.602;23.468;2024-02-28T07:09:37;90342.31;;;-145.88;100.00
6204;BME280;3135;42.602;23.468;2024-02-28T07:12:03;90772.56;;;-145.88;100.00
6204;BME280;3135;42.602;23.468;2024-02-28T07:14:29;90252.19;;;-145.88;100.00
6204;BME280;3135;42.602;23.468;2024-02-28T07:16:54;90248.06;;;-145.88;100.00
6204;BME280;3135;42.602;23.468;2024-02-28T07:19:20;90186.63;;;-145.88;100.00
6204;BME280;3135;42.602;23.468;2024-02-28T07:21:46;90256.28;;;-145.88;100.00
6204;BME280;3135;42.602;23.468;2024-02-28T07:24:11;90211.19;;;-145.88;100.00
6204;BME280;3135;42.602;23.468;2024-02-28T07:26:37;90229.63;;;-145.88;100.00
6204;BME280;3135;42.602;23.468;2024-02-28T07:29:03;90256.28;;;-145.88;100.00
6204;BME280;3135;42.602;23.468;2024-02-28T07:31:28;89961.28;;;-145.88;100.00
6204;BME280;3135;42.602;23.468;2024-02-28T07:33:54;90248.06;;;-145.88;100.00
6204;BME280;3135;42.602;23.468;2024-02-28T07:36:20;90192.75;;;-145.88;100.00
6204;BME280;3135;42.602;23.468;2024-02-28T07:38:45;90258.31;;;-145.88;100.00
6204;BME280;3135;42.602;23.468;2024-02-28T07:41:11;90174.31;;;-145.88;100.00
6204;BME280;3135;42.602;23.468;2024-02-28T07:43:36;89881.41;;;-145.88;100.00
6204;BME280;3135;42.602;23.468;2024-02-28T07:46:11;90866.81;;;-145.88;100.00
6204;BME280;3135;42.602;23.468;2024-02-28T07:48:38;90125.16;;;-145.88;100.00
6204;BME280;3135;42.602;23.468;2024-02-28T07:51:09;90112.88;;;-145.88;100.00
6204;BME280;3135;42.602;23.468;2024-02-28T07:53:35;90196.88;;;-145.88;100.00
6204;BME280;3135;42.602;23.468;2024-02-28T07:56:01;90080.09;;;-145.88;100.00
6204;BME280;3135;42.602;23.468;2024-02-28T07:58:26;90139.50;;;-145.88;100.00
6204;BME280;3135;42.602;23.468;2024-02-28T08:00:51;90069.84;;;-145.88;100.00
6204;BME280;3135;42.602;23.468;2024-02-28T08:03:20;89680.66;;;-145.88;100.00
6204;BME280;3135;42.602;23.468;2024-02-28T08:05:45;90162.03;;;-145.88;100.00
6204;BME280;3135;42.602;23.468;2024-02-28T08:08:11;90192.75;;;-145.88;100.00
6204;BME280;3135;42.602;23.468;2024-02-28T08:10:37;90067.81;;;-145.88;100.00
6204;BME280;3135;42.602;23.468;2024-02-28T08:13:06;90047.31;;;-145.88;100.00
6204;BME280;3135;42.602;23.468;2024-02-28T08:15:33;90096.47;;;-145.88;100.00
6204;BME280;3135;42.602;23.468;2024-02-28T08:17:58;90006.34;;;-145.88;100.00
6204;BME280;3135;42.602;23.468;2024-02-28T08:20:24;89641.75;;;-145.88;100.00
6204;BME280;3135;42.602;23.468;2024-02-28T08:22:49;90086.25;;;-145.88;100.00
6204;BME280;3135;42.602;23.468;2024-02-28T08:25:15;90004.31;;;-145.88;100.00
6204;BME280;3135;42.602;23.468;2024-02-28T08:27:41;89957.19;;;-145.88;100.00
6204;BME280;3135;42.602;23.468;2024-02-28T08:30:07;90586.13;;;-145.88;100.00
6204;BME280;3135;42.602;23.468;2024-02-28T08:32:33;90000.19;;;-145.88;100.00
6204;BME280;3135;42.602;23.468;2024-02-28T08:34:58;89983.81;;;-145.88;100.00
6204;BME280;3135;42.602;23.468;2024-02-28T08:37:25;89822.00;;;-145.88;100.00
6204;BME280;3135;42.602;23.468;2024-02-28T08:39:52;90657.84;;;-145.88;100.00
6204;BME280;3135;42.602;23.468;2024-02-28T08:42:18;90223.50;;;-145.88;100.00
6204;BME280;3135;42.602;23.468;2024-02-28T08:44:43;89916.22;;;-145.88;100.00
6204;BME280;3135;42.602;23.468;2024-02-28T08:47:08;89869.09;;;-145.88;100.00
6204;BME280;3135;42.602;23.468;2024-02-28T08:49:38;89862.97;;;-145.88;100.00
6204;BME280;3135;42.602;23.468;2024-02-28T08:52:04;89805.59;;;-145.88;100.00
6204;BME280;3135;42.602;23.468;2024-02-28T08:54:29;89944.91;;;-145.88;100.00
6204;BME280;3135;42.602;23.468;2024-02-28T08:56:55;89719.56;;;-145.88;100.00
6204;BME280;3135;42.602;23.468;2024-02-28T08:59:20;89922.34;;;-145.88;100.00
6204;BME280;3135;42.602;23.468;2024-02-28T09:01:47;89572.09;;;-145.88;100.00
6204;BME280;3135;42.602;23.468;2024-02-28T09:04:13;89844.53;;;-145.88;100.00
6204;BME280;3135;42.602;23.468;2024-02-28T09:06:38;89832.22;;;-145.88;100.00
6204;BME280;3135;42.602;23.468;2024-02-28T09:09:03;89985.88;;;-145.88;100.00
6204;BME280;3135;42.602;23.468;2024-02-28T09:11:29;89871.16;;;-145.88;100.00
6204;BME280;3135;42.602;23.468;2024-02-28T09:13:54;89805.59;;;-145.88;100.00
6204;BME280;3135;42.602;23.468;2024-02-28T09:16:20;89754.41;;;-145.88;100.00
6204;BME280;3135;42.602;23.468;2024-02-28T09:18:45;90495.97;;;-145.88;100.00
6204;BME280;3135;42.602;23.468;2024-02-28T09:21:11;89746.19;;;-145.88;100.00
6204;BME280;3135;42.602;23.468;2024-02-28T09:23:38;89658.13;;;-145.88;100.00
6204;BME280;3135;42.602;23.468;2024-02-28T09:26:04;89760.53;;;-145.88;100.00
6204;BME280;3135;42.602;23.468;2024-02-28T09:28:29;89727.75;;;-145.88;100.00
6204;BME280;3135;42.602;23.468;2024-02-28T09:30:55;89727.75;;;-145.88;100.00
6204;BME280;3135;42.602;23.468;2024-02-28T09:33:20;90254.22;;;-145.88;100.00
6204;BME280;3135;42.602;23.468;2024-02-28T09:35:46;89776.94;;;-145.88;100.00
6204;BME280;3135;42.602;23.468;2024-02-28T09:38:11;89619.19;;;-145.88;100.00
6204;BME280;3135;42.602;23.468;2024-02-28T09:40:37;89613.06;;;-145.88;100.00
6204;BME280;3135;42.602;23.468;2024-02-28T09:43:04;89764.63;;;-145.88;100.00
6204;BME280;3135;42.602;23.468;2024-02-28T09:45:30;89680.66;;;-145.88;100.00
6204;BME280;3135;42.602;23.468;2024-02-28T09:47:58;89662.22;;;-145.88;100.00
6204;BME280;3135;42.602;23.468;2024-02-28T09:50:25;89969.47;;;-145.88;100.00
6204;BME280;3135;42.602;23.468;2024-02-28T09:52:51;89611.00;;;-145.88;100.00
6204;BME280;3135;42.602;23.468;2024-02-28T09:55:16;89660.16;;;-145.88;100.00
6204;BME280;3135;42.602;23.468;2024-02-28T09:57:43;89639.69;;;-145.88;100.00
6204;BME280;3135;42.602;23.468;2024-02-28T10:00:13;89654.03;;;-145.88;100.00
6204;BME280;3135;42.602;23.468;2024-02-28T10:02:41;89666.31;;;-145.88;100.00
6204;BME280;3135;42.602;23.468;2024-02-28T10:05:08;90198.91;;;-145.88;100.00
6204;BME280;3135;42.602;23.468;2024-02-28T10:07:34;89602.81;;;-145.88;100.00
6204;BME280;3135;42.602;23.468;2024-02-28T10:10:00;89531.13;;;-145.88;100.00
6204;BME280;3135;42.602;23.468;2024-02-28T10:12:25;89565.94;;;-145.88;100.00
6204;BME280;3135;42.602;23.468;2024-02-28T10:14:51;89525.00;;;-145.88;100.00
6204;BME280;3135;42.602;23.468;2024-02-28T10:17:16;89498.34;;;-145.88;100.00
6204;BME280;3135;42.602;23.468;2024-02-28T10:19:42;89357.03;;;-145.88;100.00
6204;BME280;3135;42.602;23.468;2024-02-28T10:22:07;89223.91;;;-145.88;100.00
6204;BME280;3135;42.602;23.468;2024-02-28T10:24:36;89424.63;;;-145.88;100.00
6204;BME280;3135;42.602;23.468;2024-02-28T10:27:03;89527.03;;;-145.88;100.00
6204;BME280;3135;42.602;23.468;2024-02-28T10:29:28;89516.78;;;-145.88;100.00
6204;BME280;3135;42.602;23.468;2024-02-28T10:31:57;89535.22;;;-145.88;100.00
6204;BME280;3135;42.602;23.468;2024-02-28T10:34:22;89469.69;;;-145.88;100.00
6204;BME280;3135;42.602;23.468;2024-02-28T10:36:49;89561.84;;;-145.88;100.00
6204;BME280;3135;42.602;23.468;2024-02-28T10:39:14;89432.81;;;-145.88;100.00
6204;BME280;3135;42.602;23.468;2024-02-28T10:41:41;89543.41;;;-145.88;100.00
6204;BME280;3135;42.602;23.468;2024-02-28T10:44:08;89490.16;;;-145.88;100.00
6204;BME280;3135;42.602;23.468;2024-02-28T10:46:34;89391.84;;;-145.88;100.00
6204;BME280;3135;42.602;23.468;2024-02-28T10:49:00;89443.06;;;-145.88;100.00
6204;BME280;3135;42.602;23.468;2024-02-28T10:51:26;89367.28;;;-145.88;100.00
6204;BME280;3135;42.602;23.468;2024-02-28T10:54:08;89309.94;;;-145.88;100.00
6204;BME280;3135;42.602;23.468;2024-02-28T10:56:35;89281.25;;;-145.88;100.00
6204;BME280;3135;42.602;23.468;2024-02-28T10:59:01;89318.13;;;-145.88;100.00
6204;BME280;3135;42.602;23.468;2024-02-28T11:01:26;89428.72;;;-145.88;100.00
6204;BME280;3135;42.602;23.468;2024-02-28T11:03:53;89467.63;;;-145.88;100.00
6204;BME280;3135;42.602;23.468;2024-02-28T11:06:20;89506.56;;;-145.88;100.00
6204;BME280;3135;42.602;23.468;2024-02-28T11:08:51;89404.16;;;-145.88;100.00
6204;BME280;3135;42.602;23.468;2024-02-28T11:11:22;89463.53;;;-145.88;100.00
6204;BME280;3135;42.602;23.468;2024-02-28T11:13:57;89326.31;;;-145.88;100.00
6204;BME280;3135;42.602;23.468;2024-02-28T11:16:32;89418.47;;;-145.88;100.00
6204;BME280;3135;42.602;23.468;2024-02-28T11:18:58;89373.41;;;-145.88;100.00
6204;BME280;3135;42.602;23.468;2024-02-28T11:21:27;89352.94;;;-145.88;100.00
6204;BME280;3135;42.602;23.468;2024-02-28T11:23:58;89350.88;;;-145.88;100.00
6204;BME280;3135;42.602;23.468;2024-02-28T11:26:24;89142.00;;;-145.88;100.00
6204;BME280;3135;42.602;23.468;2024-02-28T11:28:49;89322.22;;;-145.88;100.00
6204;BME280;3135;42.602;23.468;2024-02-28T11:31:15;89301.75;;;-145.88;100.00
6204;BME280;3135;42.602;23.468;2024-02-28T11:33:41;89268.97;;;-145.88;100.00
6204;BME280;3135;42.602;23.468;2024-02-28T11:36:07;89258.72;;;-145.88;100.00
6204;BME280;3135;42.602;23.468;2024-02-28T11:38:35;89387.75;;;-145.88;100.00
6204;BME280;3135;42.602;23.468;2024-02-28T11:41:03;89314.03;;;-145.88;100.00
6204;BME280;3135;42.602;23.468;2024-02-28T11:43:31;89260.78;;;-145.88;100.00
6204;BME280;3135;42.602;23.468;2024-02-28T11:45:58;89129.69;;;-145.88;100.00
6204;BME280;3135;42.602;23.468;2024-02-28T11:48:24;89387.75;;;-145.88;100.00
6204;BME280;3135;42.602;23.468;2024-02-28T11:50:51;89260.78;;;-145.88;100.00
6204;BME280;3135;42.602;23.468;2024-02-28T11:53:16;89334.50;;;-145.88;100.00
6204;BME280;3135;42.602;23.468;2024-02-28T11:55:42;89291.50;;;-145.88;100.00
6204;BME280;3135;42.602;23.468;2024-02-28T11:58:08;89402.09;;;-145.88;100.00
6204;BME280;3135;42.602;23.468;2024-02-28T12:00:34;89336.56;;;-145.88;100.00
6204;BME280;3135;42.602;23.468;2024-02-28T12:03:06;89340.66;;;-145.88;100.00
6204;BME280;3135;42.602;23.468;2024-02-28T12:05:31;89234.16;;;-145.88;100.00
6204;BME280;3135;42.602;23.468;2024-02-28T12:07:57;89391.84;;;-145.88;100.00
6204;BME280;3135;42.602;23.468;2024-02-28T12:10:23;89332.47;;;-145.88;100.00
6204;BME280;3135;42.602;23.468;2024-02-28T12:12:48;89293.53;;;-145.88;100.00
6204;BME280;3135;42.602;23.468;2024-02-28T12:15:15;89375.47;;;-145.88;100.00
6204;BME280;3135;42.602;23.468;2024-02-28T12:17:42;89293.53;;;-145.88;100.00
6204;BME280;3135;42.602;23.468;2024-02-28T12:20:08;88855.28;;;-145.88;100.00
6204;BME280;3135;42.602;23.468;2024-02-28T12:22:34;89258.72;;;-145.88;100.00
6204;BME280;3135;42.602;23.468;2024-02-28T12:24:59;89305.84;;;-145.88;100.00
6204;BME280;3135;42.602;23.468;2024-02-28T12:27:29;89033.44;;;-145.88;100.00
6204;BME280;3135;42.602;23.468;2024-02-28T12:29:56;89678.59;;;-145.88;100.00
6204;BME280;3135;42.602;23.468;2024-02-28T12:32:21;89172.72;;;-145.88;100.00
6204;BME280;3135;42.602;23.468;2024-02-28T12:34:47;89142.00;;;-145.88;100.00